createdAt,value
2022-09-07T00:00:46.899Z,47.29
2022-09-07T00:10:48.151Z,46.92
2022-09-07T00:20:49.434Z,46.62
2022-09-07T00:30:50.725Z,46.70
2022-09-07T00:40:52.026Z,46.38
2022-09-07T00:50:53.345Z,46.05
2022-09-07T01:00:54.697Z,45.58
2022-09-07T01:10:55.935Z,45.68
2022-09-07T01:20:57.209Z,45.45
2022-09-07T01:30:58.562Z,45.22
2022-09-07T01:40:59.861Z,45.09
2022-09-07T01:51:01.127Z,44.92
2022-09-07T02:01:02.427Z,44.81
2022-09-07T02:11:03.686Z,44.64
2022-09-07T02:21:05.034Z,44.67
2022-09-07T02:31:06.380Z,44.55
2022-09-07T02:41:07.664Z,44.51
2022-09-07T02:51:09.001Z,44.39
2022-09-07T03:01:10.375Z,44.53
2022-09-07T03:11:11.644Z,44.47
2022-09-07T03:21:12.896Z,44.47
2022-09-07T03:31:14.388Z,44.44
2022-09-07T03:41:15.678Z,44.52
2022-09-07T03:51:16.950Z,44.82
2022-09-07T04:01:18.335Z,44.73
2022-09-07T04:11:19.767Z,44.64
2022-09-07T04:21:21.070Z,44.73
2022-09-07T04:31:22.410Z,44.57
2022-09-07T04:41:23.761Z,44.88
2022-09-07T04:51:25.030Z,44.38
2022-09-07T05:01:26.451Z,44.56
2022-09-07T05:11:29.361Z,44.76
2022-09-07T05:21:30.930Z,44.99
2022-09-07T05:31:32.195Z,44.68
2022-09-07T05:41:33.450Z,45.10
2022-09-07T05:51:34.821Z,44.70
2022-09-07T06:01:38.475Z,45.13
2022-09-07T06:11:39.783Z,45.25
2022-09-07T06:21:41.189Z,45.40
2022-09-07T06:42:03.864Z,45.86
2022-09-07T06:52:05.291Z,46.05
2022-09-07T07:02:06.660Z,46.32
2022-09-07T07:12:07.964Z,46.79
2022-09-07T07:22:42.581Z,47.41
2022-09-07T07:43:01.620Z,49.78
2022-09-07T08:13:53.093Z,50.90
2022-09-07T08:23:57.759Z,51.03
2022-09-07T08:44:30.080Z,51.81
2022-09-07T08:54:31.505Z,52.38
2022-09-07T09:05:15.155Z,52.67
2022-09-07T09:14:56.220Z,52.81
2022-09-07T09:24:58.062Z,52.69
2022-09-07T09:34:59.673Z,52.50
2022-09-07T09:45:03.956Z,52.18
2022-09-07T09:55:33.358Z,51.68
2022-09-07T10:05:33.948Z,51.58
2022-09-07T10:15:41.049Z,51.14
2022-09-07T10:25:44.723Z,51.05
2022-09-07T10:35:54.810Z,50.60
2022-09-07T10:45:57.060Z,50.30
2022-09-07T10:56:06.008Z,50.03
2022-09-07T11:06:13.585Z,49.85
2022-09-07T11:26:44.797Z,49.04
2022-09-07T11:36:47.697Z,48.75
2022-09-07T11:46:51.887Z,48.59
2022-09-07T11:57:06.650Z,47.91
2022-09-07T12:07:10.319Z,47.93
2022-09-07T12:17:12.931Z,47.31
2022-09-07T12:27:20.659Z,47.25
2022-09-07T12:37:24.960Z,47.07
2022-09-07T12:47:32.643Z,46.61
2022-09-07T13:08:08.688Z,45.92
2022-09-07T13:18:10.815Z,45.39
2022-09-07T13:28:12.188Z,45.38
2022-09-07T13:38:17.579Z,45.43
2022-09-07T13:48:22.628Z,43.84
2022-09-07T13:58:30.639Z,43.62
2022-09-07T14:08:40.630Z,43.82
2022-09-07T14:29:10.828Z,43.36
2022-09-07T14:39:12.278Z,42.78
2022-09-07T14:49:13.519Z,42.84
2022-09-07T14:59:22.472Z,42.21
2022-09-07T15:19:53.051Z,41.88
2022-09-07T15:50:58.878Z,41.52
2022-09-07T16:11:28.024Z,41.34
2022-09-07T16:21:29.328Z,41.39
2022-09-07T16:31:32.010Z,40.86
2022-09-07T16:41:39.652Z,40.93
2022-09-07T16:51:47.625Z,41.16
2022-09-07T17:01:55.677Z,41.23
2022-09-07T17:22:18.953Z,41.17
2022-09-07T17:32:24.448Z,41.12
2022-09-07T17:43:38.699Z,41.30
2022-09-07T17:52:52.979Z,41.52
2022-09-07T18:02:54.482Z,41.11
2022-09-07T18:12:55.824Z,41.12
2022-09-07T18:22:57.790Z,41.20
2022-09-07T18:32:59.407Z,41.09
2022-09-07T18:43:00.817Z,41.09
2022-09-07T18:53:14.460Z,41.16
2022-09-07T19:03:17.987Z,41.37
2022-09-07T19:13:19.235Z,41.41
2022-09-07T19:23:22.939Z,41.14
2022-09-07T19:33:25.558Z,41.53
2022-09-07T19:43:26.938Z,41.14
2022-09-07T19:53:28.507Z,41.51
2022-09-07T20:03:30.033Z,41.54
2022-09-07T20:13:31.402Z,41.43
2022-09-07T20:23:32.784Z,41.41
2022-09-07T20:33:34.145Z,41.78
2022-09-07T20:43:35.462Z,41.67
2022-09-07T20:53:36.827Z,42.35
2022-09-07T21:03:38.242Z,42.13
2022-09-07T21:13:39.476Z,42.50
2022-09-07T21:23:40.707Z,41.96
2022-09-07T21:33:42.109Z,42.15
2022-09-07T21:43:43.358Z,42.42
2022-09-07T21:53:44.621Z,42.56
2022-09-07T22:03:46.123Z,42.62
2022-09-07T22:13:47.387Z,42.35
2022-09-07T22:23:48.633Z,42.44
2022-09-07T22:33:49.907Z,42.70
2022-09-07T22:43:51.209Z,42.89
2022-09-07T22:53:52.499Z,42.97
2022-09-07T23:03:53.805Z,43.01
2022-09-07T23:24:24.412Z,43.37
2022-09-07T23:34:25.631Z,43.03
2022-09-07T23:44:26.945Z,43.22
2022-09-07T23:54:28.734Z,43.76
